Aktualne dane pomiarowe

Uwaga, wersja testowa! Automatyczne pobieranie danych za pomocą narzędzi lub skryptów to umożliwiających jest zabronione.

Dane meteo z obszaru Polski uzyskane na podstawie depesz SYNOP pobieranych co godzinę z NWS. Najedź myszką na symbol przedstawiony w tabeli, aby uzyskać informacje co do jego znaczenia. Prosimy pamiętać, że to testowa wersja strony, która jeszcze nie jest ukończona. Stworzono również jest krótki FAQ dotyczący korzystania z tej podstrony Anomalie temperatury w chwili obecnej odniesione są do okresu referencyjnego 1951-2016. Okres ten będzie później zmieniony na 1981-2010. Kliknij ikonę aby pobrać plik CSV. Kliknij ikonę aby wygenerować mapę synoptyczną dla danego terminu.

Wybierz Datę:    

        

Przemyśl (12695)

Dane terminowe dla wybranej stacji. Kliknij datę, aby otrzymać dane z tego terminu dla wszystkich stacji.

TemperaturaZachmurzenieWiatrCiśnienieOpadyPogoda
 Data t td wb tx tn tg rh  Nt Nl Cl Cm Ch ws wd g1 g2 wx mslp ppp ch 24h 12h t ww ww w1 w2  
2019-06-24 23:00:00 18.3 17.2 17.5--- 93---0----1025.6 992.6 0.0---------
2019-06-24 22:00:00 18.3 17.0 17.4--- 92---1----1025.8 992.9 0.9---wx-----
2019-06-24 21:00:00 19.4 17.0 17.7--- 86---1----1025.8 992.9 1.2---wx-----
2019-06-24 20:00:00 19.7 17.2 17.9--- 86---1wx---1025.6 992.7 1.2---------
2019-06-24 19:00:00 20.7 17.3 18.3--- 81---1----1024.7 992.0 0.6---wx-----
2019-06-24 18:00:00 22.1 18.0 19.2 22.8 17.2- 78---0----1024.3 991.7 0.5- 0.012wx-----
2019-06-24 17:00:00 22.4 17.8 19.2--- 75---2----1024.0 991.5 0.0---wx-----
2019-06-24 16:00:00 22.5 17.8 19.2--- 75---2----1023.8 991.3 0.0---wx-----
2019-06-24 15:00:00 21.9 17.8 19.0--- 78---3----1023.7 991.2 -0.2---wx-----
2019-06-24 14:00:00 21.0 17.9 18.8--- 82---0----1024.1 991.4 0.0---------
2019-06-24 13:00:00 20.8 17.6 18.5--- 82---0----1024.1 991.4 0.3---------
2019-06-24 12:00:00 20.8 17.5 18.5--- 81---3----1024.1 991.4 0.8- 0.06wx-----
2019-06-24 11:00:00 19.5 17.1 17.8--- 86---3----1024.2 991.4 1.1---wx-----
2019-06-24 10:00:00 19.0 16.9 17.5--- 88---3----1023.9 991.1 1.3---wx-----
2019-06-24 09:00:00 19.1 16.8 17.5--- 87---4----1023.5 990.6 1.3---wx-----
2019-06-24 08:00:00 18.9 16.6 17.3--- 87---0----1023.0 990.2 0.8---------
2019-06-24 07:00:00 18.9 16.8 17.4--- 88---3----1022.6 989.8 0.9---wx-----
2019-06-24 06:00:00 19.5 17.5 18.1 24.4 17.2 17 88---3----1022.0 989.3 0.9 0.0 0.012wx---- 5.8
2019-06-24 05:00:00 18.0 17.1 17.3--- 94---1----1022.3 989.4 1.1---wx-----
2019-06-24 04:00:00 17.5 16.8 17.0--- 96---2----1021.8 988.9 0.8---wx-----
2019-06-24 03:00:00 17.3 16.6 16.8--- 96---3----1021.3 988.4 0.4---wx-----
2019-06-24 02:00:00 17.2 16.6 16.7--- 96---3----1021.3 988.3 0.8---wx-----
2019-06-24 01:00:00 17.6 16.8 17.0--- 95---3----1020.9 988.0 0.6---wx-----
2019-06-24 00:00:00 18.1 17.2 17.4--- 94---3----1020.8 987.9 0.5- 0.06wx-----
2019-06-23 23:00:00 18.9 17.3 17.7--- 90---3wx---1020.3 987.6 0.7---wx-----
2019-06-23 22:00:00 19.5 17.4 18.0--- 88---3wx---1020.1 987.4 0.5---------
2019-06-23 21:00:00 19.7 17.4 18.1--- 87---2wx---1020.1 987.4 1.0---wx-----
2019-06-23 20:00:00 20.3 17.4 18.2--- 83---3----1019.4 986.9 1.1---wx-----
2019-06-23 19:00:00 20.7 17.3 18.3--- 81---3----1019.4 986.9 1.4---wx-----
2019-06-23 18:00:00 21.5 17.2 18.5 24.4 17.8- 77---3wx---1018.8 986.4 0.8- 0.012wx-----
2019-06-23 17:00:00 23.1 17.1 19.0--- 69---3----1018.0 985.8 0.2---wx-----
2019-06-23 16:00:00 23.5 16.7 19.0--- 66---4wx---1017.6 985.5 -0.4---------
2019-06-23 15:00:00 23.0 17.3 19.1--- 70---3----1017.8 985.6 -0.4---wx-----
2019-06-23 14:00:00 23.4 17.7 19.5--- 70---4wx---1017.8 985.6 -0.7---wx-----
2019-06-23 13:00:00 23.5 17.6 19.5--- 70---0----1018.0 985.9 -0.5---------
2019-06-23 12:00:00 23.1 17.2 19.1--- 69---3----1018.3 986.0 0.0- 0.06wx-----
2019-06-23 11:00:00 23.2 17.5 19.3--- 70---2----1018.6 986.4 0.3---wx-----
2019-06-23 10:00:00 23.3 17.2 19.2--- 69---3----1018.6 986.3 0.0---wx-----
2019-06-23 09:00:00 22.0 16.7 18.4--- 72---2----1018.5 986.2 0.0---wx-----
2019-06-23 08:00:00 21.5 17.1 18.5--- 76---3----1018.5 986.1 0.3---wx-----
2019-06-23 07:00:00 20.9 16.8 18.1--- 77---0----1018.9 986.4 0.6---------
2019-06-23 06:00:00 19.9 16.3 17.4 24.6 17.8 17 80---3----1018.8 986.3 0.5 0.0 0.012wx---- 5.8
2019-06-23 05:00:00 19.3 16.8 17.5--- 85---3----1018.5 985.8 0.0---wx-----
2019-06-23 04:00:00 17.9 16.7 17.0--- 93---3----1018.5 985.7 0.0---wx-----
2019-06-23 03:00:00 17.9 17.1 17.3--- 95---1----1018.6 985.8 -0.2---wx-----
2019-06-23 02:00:00 17.9 17.1 17.3--- 95---0----1018.5 985.7 -0.5---------
2019-06-23 01:00:00 18.0 17.1 17.3--- 94---2----1018.4 985.6 -1.0---wx-----
2019-06-23 00:00:00 18.3 17.1 17.4--- 93---0----1018.8 986.0 -0.2- 0.06wx-----
1.1 ms

 

Print Friendly, PDF & Email